Time;durP1;ratioP1;P1;durP2;ratioP2;P2;SDS_P1;SDS_P2;PMS_P1;PMS_P2;Temp;Humidity;BMP_temperature;BMP_pressure;BME280_temperature;BME280_humidity;BME280_pressure;Samples;Min_cycle;Max_cycle;Signal;HPM_P1;HPM_P2
2023/07/11 03:54:28;;;;;;;3.80;1.90;;;;;;;22.97;64.67;100019.11;85801;1305;548002;-61
2023/07/11 03:56:29;;;;;;;1.70;1.60;;;;;;;22.93;65.07;100019.46;87545;1288;137761;-59
2023/07/11 03:58:31;;;;;;;4.00;1.60;;;;;;;22.98;64.89;100019.89;87200;1284;23821;-60
2023/07/11 04:00:33;;;;;;;1.70;1.50;;;;;;;23.06;64.67;100019.44;87112;1283;138009;-64
2023/07/11 04:02:35;;;;;;;1.40;1.30;;;;;;;23.22;64.32;100019.63;86988;1284;22544;-60
2023/07/11 04:04:36;;;;;;;1.60;1.50;;;;;;;23.35;63.82;100017.27;87155;1283;138355;-61
2023/07/11 04:06:39;;;;;;;2.00;1.60;;;;;;;23.45;63.21;100009.88;87226;1272;22551;-63
2023/07/11 16:11:13;;;;;;;1.20;0.40;;;;;;;21.75;47.71;100005.43;85682;1304;545842;-60
2023/07/11 16:13:22;;;;;;;0.80;0.50;;;;;;;21.71;47.69;100005.38;87312;1281;138278;-63
2023/07/11 16:15:31;;;;;;;0.50;0.30;;;;;;;21.69;47.92;100008.02;87216;1287;24250;-62
2023/07/11 16:17:33;;;;;;;3.30;0.60;;;;;;;21.70;48.01;100011.23;87195;1285;137111;-62
2023/07/11 16:19:35;;;;;;;2.00;0.20;;;;;;;21.69;48.05;100009.55;87276;1286;22549;-62
2023/07/11 16:21:36;;;;;;;1.60;0.40;;;;;;;21.68;48.09;100010.73;87124;1285;138249;-61
2023/07/11 16:23:38;;;;;;;1.40;1.40;;;;;;;21.68;48.23;100009.61;87164;1286;25427;-61
2023/07/11 16:25:44;;;;;;;0.40;0.30;;;;;;;21.67;48.11;100013.30;87199;1283;174736;-62
2023/07/11 16:27:55;;;;;;;1.10;0.40;;;;;;;21.65;48.23;100009.66;87287;1287;25356;-62
2023/07/11 16:29:57;;;;;;;0.40;0.30;;;;;;;21.65;48.48;100008.56;87295;1280;138185;-62
2023/07/11 16:31:59;;;;;;;0.70;0.30;;;;;;;21.63;48.42;100008.23;87368;1282;22537;-60
2023/07/11 16:34:00;;;;;;;3.30;0.20;;;;;;;21.60;48.18;100008.06;87740;1274;138304;-61
2023/07/11 16:36:02;;;;;;;0.70;0.20;;;;;;;21.57;47.88;100012.58;87905;1274;24543;-61
2023/07/11 16:38:05;;;;;;;0.30;0.30;;;;;;;21.54;47.90;100018.05;87810;1274;26501;-61
2023/07/11 16:40:25;;;;;;;0.40;0.30;;;;;;;21.54;47.99;100019.56;87683;1273;138559;-62
2023/07/11 16:42:28;;;;;;;3.90;0.60;;;;;;;21.54;48.50;100018.60;87782;1273;24183;-63
2023/07/11 16:44:29;;;;;;;0.90;0.60;;;;;;;21.52;48.42;100016.96;90873;1273;137438;-62
2023/07/11 16:46:31;;;;;;;0.80;0.30;;;;;;;21.50;48.58;100020.60;90979;1274;22342;-63
2023/07/11 16:48:32;;;;;;;1.30;0.60;;;;;;;21.49;48.71;100021.08;90812;1273;138703;-62
2023/07/11 16:50:34;;;;;;;1.00;0.40;;;;;;;21.48;48.48;100021.40;90966;1274;22238;-61
2023/07/11 16:52:36;;;;;;;0.70;0.30;;;;;;;21.48;48.43;100022.05;90844;1274;138475;-62
2023/07/11 16:54:37;;;;;;;1.00;0.70;;;;;;;21.49;48.27;100026.14;90959;1272;22650;-62
2023/07/11 16:56:39;;;;;;;2.30;0.40;;;;;;;21.50;48.11;100025.09;90868;1273;138403;-63
2023/07/11 16:58:42;;;;;;;0.60;0.60;;;;;;;21.51;48.00;100025.80;90945;1274;22427;-62
2023/07/11 17:00:46;;;;;;;1.50;0.40;;;;;;;21.52;48.35;100025.54;90811;1261;138281;-62
2023/07/11 17:02:49;;;;;;;0.60;0.60;;;;;;;21.52;48.37;100026.46;90877;1276;22429;-63
2023/07/11 17:04:52;;;;;;;0.70;0.30;;;;;;;21.50;48.48;100021.14;90800;1271;138350;-62
2023/07/11 17:06:53;;;;;;;3.50;0.50;;;;;;;21.47;48.71;100025.73;90902;1273;22295;-62
2023/07/11 17:08:57;;;;;;;0.90;0.20;;;;;;;21.47;48.78;100024.21;90673;1273;137264;-62
2023/07/11 17:10:58;;;;;;;0.30;0.30;;;;;;;21.46;48.91;100024.59;90876;1274;23123;-62
2023/07/11 17:13:00;;;;;;;2.40;0.30;;;;;;;21.43;49.06;100023.41;90785;1274;138066;-62
2023/07/11 17:15:06;;;;;;;0.30;0.30;;;;;;;21.45;49.10;100028.88;90895;1275;22356;-60
2023/07/11 17:17:19;;;;;;;0.30;0.30;;;;;;;21.47;49.09;100029.42;90823;1274;138760;-61
2023/07/11 17:19:30;;;;;;;0.90;0.50;;;;;;;21.46;49.21;100026.94;90838;1275;23103;-62
2023/07/11 17:21:32;;;;;;;0.70;0.70;;;;;;;21.44;48.89;100025.66;90887;1274;138670;-62
2023/07/11 17:23:34;;;;;;;0.50;0.30;;;;;;;21.39;48.20;100028.79;90971;1274;22418;-62
2023/07/11 17:25:36;;;;;;;0.40;0.20;;;;;;;21.34;47.62;100032.45;90859;1274;138302;-63
2023/07/11 17:27:42;;;;;;;3.00;1.00;;;;;;;21.30;47.86;100036.30;90931;1274;22146;-61
2023/07/11 17:29:45;;;;;;;0.50;0.30;;;;;;;21.27;48.30;100036.98;90818;1274;137159;-61
2023/07/11 17:31:47;;;;;;;0.70;0.20;;;;;;;21.27;48.31;100039.48;90970;1274;22343;-62
2023/07/11 17:33:49;;;;;;;1.30;0.30;;;;;;;21.26;47.86;100040.23;90784;1275;139023;-60
2023/07/11 17:35:51;;;;;;;3.50;3.30;;;;;;;21.28;47.46;100039.81;90912;1273;23059;-63
2023/07/11 17:37:52;;;;;;;6.70;6.20;;;;;;;21.27;47.02;100039.00;90854;1274;137096;-62
2023/07/11 17:39:55;;;;;;;0.60;0.40;;;;;;;21.28;47.10;100039.81;90923;1274;22333;-61
2023/07/11 17:42:13;;;;;;;0.90;0.30;;;;;;;21.26;46.27;100042.08;90803;1274;137381;-61
2023/07/11 17:44:15;;;;;;;1.20;0.20;;;;;;;21.24;46.39;100044.90;90711;1274;137460;-62
2023/07/11 17:46:19;;;;;;;0.50;0.40;;;;;;;21.21;46.17;100047.98;90900;1274;23015;-61
2023/07/11 17:48:41;;;;;;;1.30;0.10;;;;;;;21.15;46.18;100054.52;90777;1274;139383;-63
2023/07/11 17:50:44;;;;;;;1.10;0.20;;;;;;;21.11;46.98;100057.64;90963;1274;22347;-61
2023/07/11 17:52:47;;;;;;;0.60;0.10;;;;;;;21.08;46.34;100057.02;90821;1274;136942;-61
2023/07/11 17:54:48;;;;;;;0.70;0.20;;;;;;;21.04;46.02;100057.09;90925;1273;23957;-61
2023/07/11 17:56:50;;;;;;;1.80;1.70;;;;;;;20.98;46.29;100053.16;90835;1274;138493;-62
2023/07/11 17:59:00;;;;;;;4.20;1.40;;;;;;;20.95;46.78;100056.23;90949;1263;22387;-63
2023/07/11 18:01:01;;;;;;;0.40;0.20;;;;;;;20.87;46.92;100047.79;90840;1274;137594;-62
2023/07/11 18:03:03;;;;;;;0.80;0.10;;;;;;;20.92;46.56;100060.48;90922;1274;22312;-63
2023/07/11 18:05:12;;;;;;;;;;;;;;;20.89;46.47;100057.06;90799;1274;138788;-61
2023/07/11 18:07:34;;;;;;;0.40;0.20;;;;;;;20.83;46.80;100063.59;90944;1274;22177;-61
2023/07/11 18:09:36;;;;;;;0.40;0.10;;;;;;;20.74;47.06;100068.52;90776;1273;138397;-64
2023/07/11 18:11:38;;;;;;;1.80;0.20;;;;;;;20.70;47.15;100069.58;90942;1274;22460;-63
2023/07/11 18:13:40;;;;;;;1.10;0.20;;;;;;;20.67;47.43;100072.00;90805;1274;138519;-63
2023/07/11 18:15:44;;;;;;;1.20;1.10;;;;;;;20.65;47.47;100074.73;90910;1274;22902;-62
2023/07/11 18:17:46;;;;;;;1.60;0.30;;;;;;;20.63;47.93;100080.37;90815;1274;137637;-62
2023/07/11 18:19:49;;;;;;;0.20;0.20;;;;;;;20.61;48.04;100083.02;90968;1277;22248;-59
2023/07/11 18:21:50;;;;;;;0.20;0.20;;;;;;;20.58;48.22;100086.48;90803;1274;138356;-62
2023/07/11 18:23:52;;;;;;;1.80;0.80;;;;;;;20.59;48.47;100087.05;90932;1274;22383;-62
2023/07/11 18:25:54;;;;;;;0.70;0.70;;;;;;;20.60;48.70;100085.92;90806;1274;136935;-61
2023/07/11 18:27:57;;;;;;;3.90;0.30;;;;;;;20.61;48.56;100087.72;90835;1274;22282;-61
2023/07/11 18:29:59;;;;;;;1.20;0.20;;;;;;;20.59;48.52;100085.05;90841;1274;138048;-61
2023/07/11 18:32:01;;;;;;;2.60;0.30;;;;;;;20.56;49.10;100088.31;90828;1274;23125;-61
2023/07/11 18:34:03;;;;;;;4.20;4.00;;;;;;;20.57;50.06;100088.27;90899;1276;23087;-61
2023/07/11 18:36:15;;;;;;;7.50;6.80;;;;;;;20.60;50.57;100090.20;90841;1274;137221;-63
2023/07/11 18:38:25;;;;;;;2.30;0.80;;;;;;;20.65;49.80;100092.73;90969;1274;22451;-63
2023/07/11 18:40:33;;;;;;;0.70;0.40;;;;;;;20.66;49.43;100096.15;90797;1277;137000;-61
2023/07/11 18:42:34;;;;;;;5.20;4.30;;;;;;;20.65;49.40;100095.83;90944;1274;22314;-61
2023/07/11 18:44:36;;;;;;;3.80;3.60;;;;;;;20.65;49.76;100097.94;90857;1267;138502;-76
2023/07/11 18:46:37;;;;;;;1.40;0.50;;;;;;;20.65;49.80;100100.48;90967;1274;22337;-62
2023/07/11 18:48:41;;;;;;;2.80;2.70;;;;;;;20.65;49.95;100100.36;90884;1274;138952;-64
2023/07/11 18:50:43;;;;;;;2.10;1.90;;;;;;;20.66;49.81;100101.89;90948;1274;22119;-69
2023/07/11 18:52:45;;;;;;;3.80;3.40;;;;;;;20.65;49.70;100103.89;90868;1274;137465;-63
2023/07/11 18:54:46;;;;;;;1.20;1.00;;;;;;;20.63;50.09;100103.98;90949;1274;23133;-67
2023/07/11 18:56:48;;;;;;;0.30;0.30;;;;;;;20.61;49.91;100105.05;90776;1274;138656;-74
2023/07/11 18:58:49;;;;;;;4.40;0.80;;;;;;;20.60;49.93;100107.95;90981;1273;22383;-69
2023/07/11 19:00:51;;;;;;;1.20;0.60;;;;;;;20.59;50.05;100105.89;90835;1274;138670;-76
2023/07/11 19:02:53;;;;;;;1.30;0.50;;;;;;;20.54;50.13;100102.16;90863;1274;22343;-76
2023/07/11 19:05:00;;;;;;;0.90;0.70;;;;;;;20.49;50.38;100106.84;90746;1274;138350;-73
2023/07/11 19:07:03;;;;;;;0.80;0.20;;;;;;;20.45;50.62;100100.58;90776;1277;22374;-74
2023/07/11 19:09:05;;;;;;;0.70;0.40;;;;;;;20.40;50.59;100100.38;90709;1276;138988;-71
2023/07/11 19:11:13;;;;;;;2.60;0.20;;;;;;;20.37;50.67;100101.48;90946;1274;22147;-72
2023/07/11 19:13:14;;;;;;;5.50;0.50;;;;;;;20.34;50.78;100102.93;90827;1274;137284;-72
2023/07/11 19:15:23;;;;;;;0.90;0.40;;;;;;;20.29;51.11;100101.38;90983;1274;23235;-73
2023/07/11 19:17:36;;;;;;;1.80;0.70;;;;;;;20.17;51.41;100089.91;90692;1274;138434;-70
2023/07/11 19:19:37;;;;;;;0.40;0.20;;;;;;;20.19;51.67;100094.10;90908;1274;22212;-70
2023/07/11 19:21:39;;;;;;;1.50;0.90;;;;;;;20.21;51.53;100103.41;90863;1273;138855;-72
2023/07/11 19:23:41;;;;;;;1.80;1.40;;;;;;;20.20;51.61;100108.61;90970;1263;23160;-71
2023/07/11 19:25:45;;;;;;;1.60;0.50;;;;;;;20.18;51.90;100108.23;90847;1275;137797;-69
2023/07/11 19:27:52;;;;;;;1.50;1.40;;;;;;;20.16;51.92;100110.15;90961;1274;23342;-72
2023/07/11 19:29:54;;;;;;;2.50;0.50;;;;;;;20.14;52.22;100105.52;90848;1270;136960;-72
2023/07/11 19:31:57;;;;;;;2.20;0.20;;;;;;;20.13;52.37;100104.44;90976;1264;22488;-73
2023/07/11 19:33:59;;;;;;;0.40;0.20;;;;;;;20.09;52.40;100106.08;90888;1275;137554;-72
2023/07/11 19:36:00;;;;;;;3.00;0.50;;;;;;;20.04;52.55;100108.20;90980;1274;22296;-73
2023/07/11 19:38:12;;;;;;;0.30;0.20;;;;;;;19.98;52.79;100109.33;90906;1274;137377;-72
2023/07/11 19:40:17;;;;;;;2.30;0.30;;;;;;;19.93;53.04;100112.64;90931;1274;139328;-70
2023/07/11 19:42:20;;;;;;;0.70;0.10;;;;;;;19.88;53.37;100117.95;91120;1275;22289;-71
2023/07/11 19:44:22;;;;;;;1.30;0.30;;;;;;;19.82;53.49;100118.55;90918;1275;137961;-71
2023/07/11 19:46:24;;;;;;;0.20;0.10;;;;;;;19.77;53.96;100120.16;91040;1275;22367;-73
2023/07/11 19:48:26;;;;;;;0.20;0.20;;;;;;;19.70;54.25;100117.80;90884;1274;137387;-73
2023/07/11 19:50:37;;;;;;;2.10;0.90;;;;;;;19.62;54.40;100115.11;91017;1274;23110;-74
2023/07/11 19:52:38;;;;;;;1.30;0.20;;;;;;;19.51;54.86;100107.42;90884;1274;138553;-74
2023/07/11 19:54:40;;;;;;;2.30;0.20;;;;;;;19.52;55.07;100121.11;90956;1281;22280;-71
2023/07/11 19:56:43;;;;;;;1.00;0.70;;;;;;;19.48;55.44;100122.30;90869;1268;138439;-73
2023/07/11 19:58:45;;;;;;;0.80;0.40;;;;;;;19.47;55.72;100121.64;91002;1273;22323;-70
2023/07/11 20:00:48;;;;;;;1.30;0.70;;;;;;;19.45;55.95;100119.90;90849;1274;139199;-71
2023/07/11 20:02:50;;;;;;;1.60;0.50;;;;;;;19.43;56.06;100122.95;90992;1274;22235;-73
2023/07/11 20:04:51;;;;;;;2.70;0.40;;;;;;;19.41;56.36;100123.68;90868;1276;137717;-72
2023/07/11 20:06:53;;;;;;;5.30;1.60;;;;;;;19.37;56.80;100127.80;90971;1274;23069;-72
2023/07/11 20:08:55;;;;;;;1.90;0.30;;;;;;;19.32;57.75;100126.93;90856;1274;137778;-67
2023/07/11 20:10:59;;;;;;;2.70;0.30;;;;;;;19.30;57.86;100125.54;90961;1274;22097;-73
2023/07/11 20:13:04;;;;;;;1.60;0.70;;;;;;;19.28;58.16;100126.91;90853;1265;139050;-72
2023/07/11 20:15:06;;;;;;;;;;;;;;;19.24;58.41;100131.64;90966;1273;22483;-74
2023/07/11 20:17:07;;;;;;;0.70;0.20;;;;;;;19.15;59.14;100134.17;90875;1274;124028;-71
2023/07/11 20:19:12;;;;;;;1.50;0.30;;;;;;;19.05;59.89;100137.02;90995;1274;22312;-67
2023/07/11 20:21:17;;;;;;;0.70;0.20;;;;;;;19.01;60.53;100140.61;90889;1281;137453;-72
2023/07/11 20:23:21;;;;;;;4.40;0.40;;;;;;;18.98;60.66;100141.07;90933;1278;22239;-73
2023/07/11 20:25:24;;;;;;;0.50;0.50;;;;;;;18.97;61.44;100143.70;90903;1275;138695;-72
2023/07/11 20:27:29;;;;;;;3.80;0.40;;;;;;;18.93;61.96;100144.58;90987;1275;22438;-72
2023/07/11 20:29:30;;;;;;;2.20;0.50;;;;;;;18.90;62.55;100146.90;90886;1275;137372;-70
2023/07/11 20:31:32;;;;;;;3.20;0.70;;;;;;;18.86;63.29;100148.99;91008;1275;22343;-71
2023/07/11 20:33:34;;;;;;;4.90;0.30;;;;;;;18.83;63.65;100145.39;90868;1274;138643;-73
2023/07/11 20:35:41;;;;;;;3.10;0.60;;;;;;;18.80;64.33;100145.80;90952;1275;22430;-71
2023/07/11 20:37:42;;;;;;;1.30;0.60;;;;;;;18.70;64.74;100133.99;90880;1274;137745;-69
2023/07/11 20:39:44;;;;;;;1.90;0.90;;;;;;;18.73;65.50;100144.14;90955;1275;23415;-71
2023/07/11 20:41:46;;;;;;;1.70;1.60;;;;;;;18.69;66.32;100145.15;90853;1273;138616;-70
2023/07/11 20:43:48;;;;;;;1.50;0.30;;;;;;;18.66;66.85;100145.80;90949;1275;23197;-71
2023/07/11 20:45:50;;;;;;;1.20;1.00;;;;;;;18.66;67.18;100145.52;90827;1278;137906;-70
2023/07/11 20:47:52;;;;;;;2.40;1.20;;;;;;;18.65;68.12;100148.88;90977;1274;23265;-71
2023/07/11 20:49:55;;;;;;;2.00;0.90;;;;;;;18.63;68.56;100147.44;90874;1278;138314;-69
2023/07/11 20:51:57;;;;;;;1.20;1.10;;;;;;;18.59;69.00;100145.80;90973;1276;22411;-70
2023/07/11 20:53:59;;;;;;;1.40;0.80;;;;;;;18.54;69.74;100147.23;90873;1279;138421;-72
2023/07/11 20:56:01;;;;;;;10.70;1.90;;;;;;;18.52;70.46;100150.83;90924;1275;22147;-71
2023/07/11 20:58:05;;;;;;;1.30;0.90;;;;;;;18.53;70.29;100152.89;91014;1276;22236;-72
2023/07/11 21:00:41;;;;;;;3.50;1.10;;;;;;;18.42;70.86;100141.92;90879;1274;139194;-73
2023/07/11 21:02:43;;;;;;;0.70;0.70;;;;;;;18.43;71.13;100149.29;91013;1274;22317;-71
2023/07/11 21:04:47;;;;;;;1.80;1.00;;;;;;;18.37;71.44;100150.05;90859;1274;137938;-71
2023/07/11 21:06:49;;;;;;;1.00;0.80;;;;;;;18.30;71.52;100150.84;90985;1275;22328;-70
2023/07/11 21:08:50;;;;;;;1.30;1.20;;;;;;;18.25;71.86;100148.81;90869;1275;139973;-70
2023/07/11 21:10:53;;;;;;;1.20;1.00;;;;;;;18.23;72.17;100153.47;90996;1275;22474;-70
2023/07/11 21:12:54;;;;;;;3.50;1.10;;;;;;;18.20;72.32;100152.13;90869;1275;138285;-71
2023/07/11 21:14:57;;;;;;;1.10;0.80;;;;;;;18.19;72.28;100149.94;90971;1275;24712;-70
2023/07/11 21:16:58;;;;;;;1.00;0.50;;;;;;;18.18;72.25;100151.83;90886;1275;139275;-71
2023/07/11 21:19:02;;;;;;;0.80;0.80;;;;;;;18.15;72.45;100153.55;90937;1274;22128;-72
2023/07/11 21:21:05;;;;;;;0.70;0.70;;;;;;;18.10;72.70;100154.44;90911;1275;138799;-71
2023/07/11 21:23:07;;;;;;;1.60;0.60;;;;;;;18.06;73.18;100155.39;90960;1275;22269;-70
2023/07/11 21:25:09;;;;;;;0.50;0.50;;;;;;;18.03;73.55;100157.82;90750;1278;139079;-71
2023/07/11 21:27:11;;;;;;;0.30;0.30;;;;;;;17.94;74.08;100147.18;91012;1275;22302;-70
2023/07/11 21:29:14;;;;;;;2.00;0.50;;;;;;;17.99;74.25;100156.39;90883;1273;137386;-70
2023/07/11 21:31:17;;;;;;;1.30;0.60;;;;;;;17.95;74.77;100154.59;90977;1277;23170;-70
2023/07/11 21:33:20;;;;;;;0.90;0.60;;;;;;;17.91;75.20;100157.26;90914;1274;137771;-69
2023/07/11 21:35:23;;;;;;;0.80;0.30;;;;;;;17.89;75.70;100157.79;90954;1276;22128;-71
2023/07/11 21:37:25;;;;;;;1.40;0.30;;;;;;;17.88;75.88;100161.20;90868;1275;137919;-70
2023/07/11 21:39:26;;;;;;;0.80;0.40;;;;;;;17.86;76.55;100159.55;90999;1278;22435;-70
2023/07/11 21:41:28;;;;;;;2.10;0.70;;;;;;;17.84;76.48;100162.52;90865;1275;138246;-71
2023/07/11 21:43:29;;;;;;;0.40;0.40;;;;;;;17.80;76.84;100162.11;91001;1274;23089;-70
2023/07/11 21:45:34;;;;;;;0.50;0.50;;;;;;;17.80;77.16;100162.80;90817;1278;138080;-69
2023/07/11 21:47:35;;;;;;;1.00;0.70;;;;;;;17.82;77.01;100160.41;90959;1279;22208;-69
2023/07/11 21:49:37;;;;;;;2.70;0.60;;;;;;;17.77;77.46;100157.52;90886;1273;138594;-70
2023/07/11 21:51:43;;;;;;;1.10;0.50;;;;;;;17.73;78.25;100155.92;90974;1276;22294;-71
2023/07/11 21:53:44;;;;;;;1.90;0.60;;;;;;;17.70;78.66;100156.94;90835;1273;141536;-72
2023/07/11 21:55:48;;;;;;;1.20;1.20;;;;;;;17.72;79.52;100157.14;91023;1274;23127;-71
2023/07/11 21:57:50;;;;;;;0.30;0.30;;;;;;;17.79;79.09;100158.36;90913;1274;138377;-71
2023/07/11 21:59:52;;;;;;;1.20;0.50;;;;;;;17.81;78.76;100159.80;90974;1275;22239;-66
2023/07/11 22:01:53;;;;;;;1.00;0.40;;;;;;;17.78;79.00;100159.37;90851;1275;140003;-73
2023/07/11 22:03:55;;;;;;;0.60;0.40;;;;;;;17.76;78.94;100161.86;90995;1273;22422;-73
2023/07/11 22:05:59;;;;;;;1.60;0.40;;;;;;;17.73;79.18;100160.67;90906;1277;139119;-72
2023/07/11 22:08:00;;;;;;;1.20;0.30;;;;;;;17.68;79.92;100161.39;90953;1276;22430;-70
2023/07/11 22:10:03;;;;;;;2.40;0.80;;;;;;;17.63;80.34;100160.64;90864;1276;137138;-69
2023/07/11 22:12:05;;;;;;;0.50;0.50;;;;;;;17.57;81.04;100159.77;90845;1275;137779;-70
2023/07/11 22:14:07;;;;;;;0.70;0.60;;;;;;;17.50;81.54;100159.90;90974;1274;22226;-70
2023/07/11 22:16:20;;;;;;;1.10;0.60;;;;;;;17.44;81.95;100165.75;90915;1274;138370;-71
2023/07/11 22:18:24;;;;;;;0.70;0.30;;;;;;;17.41;82.24;100167.52;90987;1274;22231;-71
2023/07/11 22:20:38;;;;;;;0.40;0.40;;;;;;;17.37;82.62;100167.66;90892;1277;139008;-71
2023/07/11 22:22:39;;;;;;;0.40;0.40;;;;;;;17.34;83.33;100168.02;91001;1273;22388;-71
2023/07/11 22:24:41;;;;;;;0.60;0.60;;;;;;;17.31;83.52;100169.48;90860;1275;137996;-70
2023/07/11 22:26:43;;;;;;;0.50;0.50;;;;;;;17.30;83.81;100173.33;90953;1279;23128;-69
2023/07/11 22:28:46;;;;;;;3.20;0.80;;;;;;;17.27;84.00;100174.79;90899;1275;138193;-70
2023/07/11 22:30:50;;;;;;;1.90;0.40;;;;;;;17.24;84.11;100176.48;90946;1278;22461;-69
2023/07/11 22:32:54;;;;;;;1.40;0.70;;;;;;;17.22;84.34;100178.11;90818;1275;139227;-71
2023/07/11 22:34:56;;;;;;;0.80;0.50;;;;;;;17.22;84.44;100176.54;90882;1277;23205;-71
2023/07/11 22:36:57;;;;;;;0.40;0.40;;;;;;;17.21;84.47;100178.79;90873;1275;139375;-66
2023/07/11 22:38:59;;;;;;;1.20;1.10;;;;;;;17.21;84.38;100179.87;91025;1275;22611;-70
2023/07/11 22:41:00;;;;;;;1.40;0.70;;;;;;;17.19;84.66;100180.00;90896;1274;139475;-71
2023/07/11 22:43:08;;;;;;;0.80;0.80;;;;;;;17.19;84.89;100183.77;90979;1276;22099;-69
2023/07/11 22:45:10;;;;;;;0.80;0.50;;;;;;;17.20;84.88;100190.73;90843;1277;138125;-72
2023/07/11 22:47:11;;;;;;;1.30;0.60;;;;;;;17.23;84.96;100190.02;91012;1275;22681;-70
2023/07/11 22:49:14;;;;;;;1.00;0.80;;;;;;;17.19;84.96;100193.17;90912;1277;139936;-70
2023/07/11 22:51:16;;;;;;;1.90;0.60;;;;;;;17.12;85.15;100193.77;91006;1277;22204;-67
2023/07/11 22:53:23;;;;;;;1.50;0.60;;;;;;;17.09;85.57;100196.98;90903;1275;139557;-69
2023/07/11 22:55:25;;;;;;;1.80;1.00;;;;;;;17.07;85.97;100199.64;91024;1276;22358;-71
2023/07/11 22:57:27;;;;;;;2.50;0.70;;;;;;;17.01;86.41;100197.42;90943;1272;139134;-70
2023/07/11 22:59:28;;;;;;;3.50;0.90;;;;;;;16.98;86.92;100195.13;90990;1273;22211;-69
2023/07/11 23:01:30;;;;;;;4.60;2.60;;;;;;;16.96;87.36;100194.61;90903;1273;138633;-70
2023/07/11 23:03:32;;;;;;;4.00;3.00;;;;;;;16.98;88.45;100198.59;91039;1273;22367;-69
2023/07/11 23:05:34;;;;;;;2.80;0.80;;;;;;;17.06;88.08;100198.88;90838;1276;138502;-70
2023/07/11 23:07:37;;;;;;;0.80;0.60;;;;;;;17.10;87.17;100197.26;91013;1273;22259;-68
2023/07/11 23:09:39;;;;;;;2.90;0.90;;;;;;;17.09;86.96;100194.84;90805;1272;139345;-67
2023/07/11 23:11:40;;;;;;;1.10;1.00;;;;;;;17.04;86.90;100195.33;90990;1274;22581;-69
2023/07/11 23:13:44;;;;;;;0.50;0.40;;;;;;;17.02;87.31;100195.00;90935;1273;138296;-69
2023/07/11 23:15:57;;;;;;;0.60;0.60;;;;;;;17.03;87.54;100198.85;91000;1278;22163;-68
2023/07/11 23:17:59;;;;;;;1.20;1.00;;;;;;;17.08;87.62;100199.37;90883;1275;138397;-69
2023/07/11 23:20:15;;;;;;;1.30;0.60;;;;;;;17.11;87.32;100200.71;91031;1277;22923;-67
2023/07/11 23:22:16;;;;;;;1.00;0.90;;;;;;;17.10;87.26;100201.33;91009;1281;22178;-69
2023/07/11 23:24:18;;;;;;;4.20;1.00;;;;;;;17.08;87.43;100197.05;90918;1277;138595;-70
2023/07/11 23:26:20;;;;;;;2.40;0.70;;;;;;;17.08;87.54;100201.83;90954;1275;22317;-70
2023/07/11 23:28:27;;;;;;;2.20;0.60;;;;;;;17.07;87.70;100201.80;90903;1273;139254;-69
2023/07/11 23:30:38;;;;;;;0.90;0.70;;;;;;;17.06;88.15;100201.02;91013;1275;22348;-70
2023/07/11 23:32:40;;;;;;;6.90;1.00;;;;;;;17.08;88.17;100203.02;90961;1280;139273;-70
2023/07/11 23:34:42;;;;;;;1.30;0.80;;;;;;;17.11;88.01;100201.63;91008;1277;22353;-70
2023/07/11 23:36:43;;;;;;;1.60;1.00;;;;;;;17.13;87.82;100206.73;90854;1272;139301;-70
2023/07/11 23:38:50;;;;;;;2.40;0.70;;;;;;;17.09;87.50;100206.22;91026;1276;22339;-70
2023/07/11 23:40:54;;;;;;;0.90;0.80;;;;;;;17.08;87.59;100204.25;90892;1275;139704;-71
2023/07/11 23:42:55;;;;;;;0.50;0.50;;;;;;;17.07;87.33;100202.88;90997;1273;22400;-70
2023/07/11 23:44:57;;;;;;;0.80;0.80;;;;;;;17.01;87.28;100200.11;90879;1271;139179;-71
2023/07/11 23:46:58;;;;;;;1.20;0.70;;;;;;;16.97;87.27;100197.70;91165;1271;22281;-71
2023/07/11 23:49:00;;;;;;;0.80;0.60;;;;;;;16.95;87.31;100194.09;91059;1275;139631;-70
2023/07/11 23:51:02;;;;;;;0.50;0.50;;;;;;;16.94;87.04;100196.92;91152;1271;22371;-70
2023/07/11 23:53:04;;;;;;;1.00;0.90;;;;;;;16.91;87.08;100195.86;91092;1278;139397;-70
2023/07/11 23:55:05;;;;;;;0.80;0.60;;;;;;;16.90;87.12;100196.02;91371;1272;21975;-69
2023/07/11 23:57:08;;;;;;;0.50;0.40;;;;;;;16.92;87.03;100201.19;91114;1280;137480;-66
2023/07/11 23:59:10;;;;;;;1.00;0.50;;;;;;;16.89;87.13;100200.60;90879;1281;23058;-69
